sensor_id;sensor_type;location;lat;lon;timestamp;temperature;humidity
26479;DHT22;14163;-26.142;27.992;2022-07-12T00:01:08;15.50;69.60
26479;DHT22;14163;-26.142;27.992;2022-07-12T00:03:37;15.50;69.20
26479;DHT22;14163;-26.142;27.992;2022-07-12T00:06:06;15.50;69.30
26479;DHT22;14163;-26.142;27.992;2022-07-12T00:08:35;15.50;69.50
26479;DHT22;14163;-26.142;27.992;2022-07-12T00:11:06;15.50;69.40
26479;DHT22;14163;-26.142;27.992;2022-07-12T00:13:36;15.50;69.50
26479;DHT22;14163;-26.142;27.992;2022-07-12T00:16:05;15.50;69.50
26479;DHT22;14163;-26.142;27.992;2022-07-12T00:18:35;15.50;69.30
26479;DHT22;14163;-26.142;27.992;2022-07-12T00:21:04;15.50;69.30
26479;DHT22;14163;-26.142;27.992;2022-07-12T00:23:34;15.50;69.50
26479;DHT22;14163;-26.142;27.992;2022-07-12T00:26:05;15.50;69.50
26479;DHT22;14163;-26.142;27.992;2022-07-12T00:28:34;15.50;69.60
26479;DHT22;14163;-26.142;27.992;2022-07-12T00:31:03;15.40;69.60
26479;DHT22;14163;-26.142;27.992;2022-07-12T00:33:33;15.40;69.80
26479;DHT22;14163;-26.142;27.992;2022-07-12T00:36:02;15.30;70.00
26479;DHT22;14163;-26.142;27.992;2022-07-12T00:38:31;15.30;70.00
26479;DHT22;14163;-26.142;27.992;2022-07-12T00:41:01;15.30;70.00
26479;DHT22;14163;-26.142;27.992;2022-07-12T00:43:31;15.20;70.20
26479;DHT22;14163;-26.142;27.992;2022-07-12T00:46:00;15.30;70.00
26479;DHT22;14163;-26.142;27.992;2022-07-12T00:48:31;15.20;70.00
26479;DHT22;14163;-26.142;27.992;2022-07-12T00:51:01;15.20;70.40
26479;DHT22;14163;-26.142;27.992;2022-07-12T00:53:30;15.20;70.40
26479;DHT22;14163;-26.142;27.992;2022-07-12T00:55:59;15.20;70.00
26479;DHT22;14163;-26.142;27.992;2022-07-12T00:58:30;15.20;70.20
26479;DHT22;14163;-26.142;27.992;2022-07-12T01:01:00;15.20;70.00
26479;DHT22;14163;-26.142;27.992;2022-07-12T01:03:29;15.10;70.20
26479;DHT22;14163;-26.142;27.992;2022-07-12T01:05:58;15.00;70.20
26479;DHT22;14163;-26.142;27.992;2022-07-12T01:08:28;15.00;70.10
26479;DHT22;14163;-26.142;27.992;2022-07-12T01:10:59;14.90;70.20
26479;DHT22;14163;-26.142;27.992;2022-07-12T01:13:30;14.90;70.30
26479;DHT22;14163;-26.142;27.992;2022-07-12T01:16:00;15.00;70.40
26479;DHT22;14163;-26.142;27.992;2022-07-12T01:18:29;15.00;70.40
26479;DHT22;14163;-26.142;27.992;2022-07-12T01:20:59;14.90;70.20
26479;DHT22;14163;-26.142;27.992;2022-07-12T01:23:31;15.00;70.40
26479;DHT22;14163;-26.142;27.992;2022-07-12T01:26:01;14.90;70.50
26479;DHT22;14163;-26.142;27.992;2022-07-12T01:28:31;14.90;70.10
26479;DHT22;14163;-26.142;27.992;2022-07-12T01:31:01;14.90;70.20
26479;DHT22;14163;-26.142;27.992;2022-07-12T01:33:30;15.00;70.20
26479;DHT22;14163;-26.142;27.992;2022-07-12T01:36:01;15.00;70.10
26479;DHT22;14163;-26.142;27.992;2022-07-12T01:38:32;14.90;70.30
26479;DHT22;14163;-26.142;27.992;2022-07-12T01:41:01;14.90;71.00
26479;DHT22;14163;-26.142;27.992;2022-07-12T01:43:31;14.90;70.20
26479;DHT22;14163;-26.142;27.992;2022-07-12T01:46:00;14.90;70.20
26479;DHT22;14163;-26.142;27.992;2022-07-12T01:48:29;14.90;70.10
26479;DHT22;14163;-26.142;27.992;2022-07-12T01:50:58;14.80;70.10
26479;DHT22;14163;-26.142;27.992;2022-07-12T01:53:28;14.80;69.90
26479;DHT22;14163;-26.142;27.992;2022-07-12T01:55:59;14.80;70.00
26479;DHT22;14163;-26.142;27.992;2022-07-12T01:58:28;14.70;70.30
26479;DHT22;14163;-26.142;27.992;2022-07-12T02:00:57;14.80;70.20
26479;DHT22;14163;-26.142;27.992;2022-07-12T02:03:27;14.80;70.10
26479;DHT22;14163;-26.142;27.992;2022-07-12T02:05:56;14.80;69.90
26479;DHT22;14163;-26.142;27.992;2022-07-12T02:08:25;14.90;69.50
26479;DHT22;14163;-26.142;27.992;2022-07-12T02:10:54;14.90;69.50
26479;DHT22;14163;-26.142;27.992;2022-07-12T02:13:25;14.90;69.40
26479;DHT22;14163;-26.142;27.992;2022-07-12T02:15:54;14.80;69.30
26479;DHT22;14163;-26.142;27.992;2022-07-12T02:18:24;14.80;70.00
26479;DHT22;14163;-26.142;27.992;2022-07-12T02:20:53;14.80;70.40
26479;DHT22;14163;-26.142;27.992;2022-07-12T02:23:23;14.70;70.40
26479;DHT22;14163;-26.142;27.992;2022-07-12T02:25:52;14.70;70.80
26479;DHT22;14163;-26.142;27.992;2022-07-12T02:28:21;14.60;71.80
26479;DHT22;14163;-26.142;27.992;2022-07-12T02:30:52;14.50;70.90
26479;DHT22;14163;-26.142;27.992;2022-07-12T02:33:21;14.50;71.80
26479;DHT22;14163;-26.142;27.992;2022-07-12T02:35:50;14.40;72.10
26479;DHT22;14163;-26.142;27.992;2022-07-12T02:38:19;14.30;72.00
26479;DHT22;14163;-26.142;27.992;2022-07-12T02:40:48;14.20;72.80
26479;DHT22;14163;-26.142;27.992;2022-07-12T02:43:24;14.20;72.90
26479;DHT22;14163;-26.142;27.992;2022-07-12T02:46:02;14.20;73.20
26479;DHT22;14163;-26.142;27.992;2022-07-12T02:48:31;14.10;73.10
26479;DHT22;14163;-26.142;27.992;2022-07-12T02:51:01;14.10;72.80
26479;DHT22;14163;-26.142;27.992;2022-07-12T02:53:30;14.10;73.10
26479;DHT22;14163;-26.142;27.992;2022-07-12T02:56:00;14.00;73.20
26479;DHT22;14163;-26.142;27.992;2022-07-12T02:58:29;14.00;73.60
26479;DHT22;14163;-26.142;27.992;2022-07-12T03:01:00;14.00;73.40
26479;DHT22;14163;-26.142;27.992;2022-07-12T03:03:29;14.00;73.40
26479;DHT22;14163;-26.142;27.992;2022-07-12T03:05:58;13.90;74.20
26479;DHT22;14163;-26.142;27.992;2022-07-12T03:08:28;13.90;74.40
26479;DHT22;14163;-26.142;27.992;2022-07-12T03:10:57;13.80;74.20
26479;DHT22;14163;-26.142;27.992;2022-07-12T03:13:26;13.90;74.40
26479;DHT22;14163;-26.142;27.992;2022-07-12T03:15:55;13.80;74.50
26479;DHT22;14163;-26.142;27.992;2022-07-12T03:18:26;13.80;74.40
26479;DHT22;14163;-26.142;27.992;2022-07-12T03:20:55;13.80;74.80
26479;DHT22;14163;-26.142;27.992;2022-07-12T03:23:24;13.60;75.10
26479;DHT22;14163;-26.142;27.992;2022-07-12T03:25:53;13.60;76.10
26479;DHT22;14163;-26.142;27.992;2022-07-12T03:28:23;13.50;76.30
26479;DHT22;14163;-26.142;27.992;2022-07-12T03:30:52;13.50;76.80
26479;DHT22;14163;-26.142;27.992;2022-07-12T03:33:22;13.50;77.10
26479;DHT22;14163;-26.142;27.992;2022-07-12T03:35:52;13.40;77.30
26479;DHT22;14163;-26.142;27.992;2022-07-12T03:38:21;13.40;77.60
26479;DHT22;14163;-26.142;27.992;2022-07-12T03:40:51;13.40;77.70
26479;DHT22;14163;-26.142;27.992;2022-07-12T03:43:20;13.30;78.20
26479;DHT22;14163;-26.142;27.992;2022-07-12T03:45:49;13.20;78.40
26479;DHT22;14163;-26.142;27.992;2022-07-12T03:48:18;13.30;78.40
26479;DHT22;14163;-26.142;27.992;2022-07-12T03:50:47;13.30;79.00
26479;DHT22;14163;-26.142;27.992;2022-07-12T03:53:18;13.30;78.90
26479;DHT22;14163;-26.142;27.992;2022-07-12T03:55:47;13.30;79.20
26479;DHT22;14163;-26.142;27.992;2022-07-12T03:58:17;13.20;79.40
26479;DHT22;14163;-26.142;27.992;2022-07-12T04:00:46;13.20;79.20
26479;DHT22;14163;-26.142;27.992;2022-07-12T06:05:36;9.50;99.90
26479;DHT22;14163;-26.142;27.992;2022-07-12T06:08:05;9.80;99.90
26479;DHT22;14163;-26.142;27.992;2022-07-12T06:10:34;10.50;99.90
26479;DHT22;14163;-26.142;27.992;2022-07-12T06:13:04;11.30;99.90
26479;DHT22;14163;-26.142;27.992;2022-07-12T06:15:48;12.10;99.90
26479;DHT22;14163;-26.142;27.992;2022-07-12T06:18:23;12.70;99.90
26479;DHT22;14163;-26.142;27.992;2022-07-12T06:23:43;13.60;99.90
26479;DHT22;14163;-26.142;27.992;2022-07-12T06:26:13;13.90;99.90
26479;DHT22;14163;-26.142;27.992;2022-07-12T06:28:42;14.10;99.90
26479;DHT22;14163;-26.142;27.992;2022-07-12T06:31:12;14.30;99.90
26479;DHT22;14163;-26.142;27.992;2022-07-12T06:33:42;14.50;99.90
26479;DHT22;14163;-26.142;27.992;2022-07-12T06:36:14;14.60;99.90
26479;DHT22;14163;-26.142;27.992;2022-07-12T06:38:43;14.70;99.90
26479;DHT22;14163;-26.142;27.992;2022-07-12T06:41:12;14.80;99.80
26479;DHT22;14163;-26.142;27.992;2022-07-12T06:43:41;14.90;99.40
26479;DHT22;14163;-26.142;27.992;2022-07-12T06:46:10;14.90;98.80
26479;DHT22;14163;-26.142;27.992;2022-07-12T06:48:39;15.00;98.50
26479;DHT22;14163;-26.142;27.992;2022-07-12T06:51:09;15.00;98.00
26479;DHT22;14163;-26.142;27.992;2022-07-12T06:53:40;15.10;97.60
26479;DHT22;14163;-26.142;27.992;2022-07-12T06:56:09;15.20;95.50
26479;DHT22;14163;-26.142;27.992;2022-07-12T06:58:38;15.20;95.50
26479;DHT22;14163;-26.142;27.992;2022-07-12T07:01:07;15.30;95.60
26479;DHT22;14163;-26.142;27.992;2022-07-12T07:03:37;15.30;96.00
26479;DHT22;14163;-26.142;27.992;2022-07-12T07:06:06;15.30;95.50
26479;DHT22;14163;-26.142;27.992;2022-07-12T07:08:35;15.30;94.90
26479;DHT22;14163;-26.142;27.992;2022-07-12T07:11:06;15.40;94.60
26479;DHT22;14163;-26.142;27.992;2022-07-12T07:13:36;15.40;94.00
26479;DHT22;14163;-26.142;27.992;2022-07-12T07:16:06;15.40;94.00
26479;DHT22;14163;-26.142;27.992;2022-07-12T07:18:36;15.50;94.20
26479;DHT22;14163;-26.142;27.992;2022-07-12T07:21:05;15.50;94.30
26479;DHT22;14163;-26.142;27.992;2022-07-12T07:23:34;15.50;94.40
26479;DHT22;14163;-26.142;27.992;2022-07-12T07:26:05;15.60;94.30
26479;DHT22;14163;-26.142;27.992;2022-07-12T07:28:34;15.60;93.90
26479;DHT22;14163;-26.142;27.992;2022-07-12T07:31:24;15.70;93.00
26479;DHT22;14163;-26.142;27.992;2022-07-12T07:33:51;15.70;91.40
26479;DHT22;14163;-26.142;27.992;2022-07-12T07:36:21;15.90;91.30
26479;DHT22;14163;-26.142;27.992;2022-07-12T07:38:50;15.90;91.90
26479;DHT22;14163;-26.142;27.992;2022-07-12T07:41:21;16.00;92.10
26479;DHT22;14163;-26.142;27.992;2022-07-12T07:43:50;16.10;92.60
26479;DHT22;14163;-26.142;27.992;2022-07-12T07:46:19;16.20;92.60
26479;DHT22;14163;-26.142;27.992;2022-07-12T07:48:48;16.20;92.50
26479;DHT22;14163;-26.142;27.992;2022-07-12T07:51:18;16.30;91.20
26479;DHT22;14163;-26.142;27.992;2022-07-12T07:53:47;16.40;91.20
26479;DHT22;14163;-26.142;27.992;2022-07-12T07:56:16;16.40;81.90
26479;DHT22;14163;-26.142;27.992;2022-07-12T07:58:46;16.60;82.90
26479;DHT22;14163;-26.142;27.992;2022-07-12T08:01:16;16.70;78.90
26479;DHT22;14163;-26.142;27.992;2022-07-12T08:03:47;16.80;77.00
26479;DHT22;14163;-26.142;27.992;2022-07-12T08:06:16;16.90;79.30
26479;DHT22;14163;-26.142;27.992;2022-07-12T08:08:45;17.10;82.80
26479;DHT22;14163;-26.142;27.992;2022-07-12T08:11:14;17.20;80.10
26479;DHT22;14163;-26.142;27.992;2022-07-12T08:13:45;17.30;77.20
26479;DHT22;14163;-26.142;27.992;2022-07-12T08:16:14;17.40;75.00
26479;DHT22;14163;-26.142;27.992;2022-07-12T08:18:43;17.50;74.20
26479;DHT22;14163;-26.142;27.992;2022-07-12T08:21:13;17.60;71.00
26479;DHT22;14163;-26.142;27.992;2022-07-12T08:23:42;17.70;71.00
26479;DHT22;14163;-26.142;27.992;2022-07-12T08:26:11;17.70;71.30
26479;DHT22;14163;-26.142;27.992;2022-07-12T08:28:40;17.90;72.80
26479;DHT22;14163;-26.142;27.992;2022-07-12T08:31:11;18.00;67.60
26479;DHT22;14163;-26.142;27.992;2022-07-12T08:33:41;18.00;66.60
26479;DHT22;14163;-26.142;27.992;2022-07-12T08:36:13;18.10;64.40
26479;DHT22;14163;-26.142;27.992;2022-07-12T08:38:43;18.10;64.30
26479;DHT22;14163;-26.142;27.992;2022-07-12T08:41:13;18.30;65.50
26479;DHT22;14163;-26.142;27.992;2022-07-12T08:43:42;18.40;64.00
26479;DHT22;14163;-26.142;27.992;2022-07-12T08:46:14;18.50;62.80
26479;DHT22;14163;-26.142;27.992;2022-07-12T08:48:44;18.60;60.20
26479;DHT22;14163;-26.142;27.992;2022-07-12T08:51:14;18.50;59.40
26479;DHT22;14163;-26.142;27.992;2022-07-12T08:53:43;18.70;58.40
26479;DHT22;14163;-26.142;27.992;2022-07-12T08:56:31;18.80;58.20
26479;DHT22;14163;-26.142;27.992;2022-07-12T08:59:10;19.00;57.60
26479;DHT22;14163;-26.142;27.992;2022-07-12T09:01:42;19.10;57.00
26479;DHT22;14163;-26.142;27.992;2022-07-12T09:04:14;19.30;57.30
26479;DHT22;14163;-26.142;27.992;2022-07-12T09:06:43;19.50;57.50
26479;DHT22;14163;-26.142;27.992;2022-07-12T09:09:13;19.80;58.10
26479;DHT22;14163;-26.142;27.992;2022-07-12T09:11:54;20.00;56.80
26479;DHT22;14163;-26.142;27.992;2022-07-12T09:14:23;20.40;55.30
26479;DHT22;14163;-26.142;27.992;2022-07-12T09:17:01;20.80;55.40
26479;DHT22;14163;-26.142;27.992;2022-07-12T09:19:36;21.20;55.50
26479;DHT22;14163;-26.142;27.992;2022-07-12T09:22:15;21.70;54.30
26479;DHT22;14163;-26.142;27.992;2022-07-12T09:24:44;22.00;54.00
26479;DHT22;14163;-26.142;27.992;2022-07-12T09:27:13;22.10;52.70
26479;DHT22;14163;-26.142;27.992;2022-07-12T09:29:49;22.20;51.90
26479;DHT22;14163;-26.142;27.992;2022-07-12T09:32:20;22.60;51.70
26479;DHT22;14163;-26.142;27.992;2022-07-12T09:35:07;22.90;51.40
26479;DHT22;14163;-26.142;27.992;2022-07-12T09:37:53;23.00;50.70
26479;DHT22;14163;-26.142;27.992;2022-07-12T09:40:22;22.90;51.90
26479;DHT22;14163;-26.142;27.992;2022-07-12T09:42:52;23.30;51.20
26479;DHT22;14163;-26.142;27.992;2022-07-12T09:45:21;23.90;50.90
26479;DHT22;14163;-26.142;27.992;2022-07-12T09:47:53;24.30;50.00
26479;DHT22;14163;-26.142;27.992;2022-07-12T09:50:22;24.30;49.30
26479;DHT22;14163;-26.142;27.992;2022-07-12T09:52:53;24.40;49.00
26479;DHT22;14163;-26.142;27.992;2022-07-12T09:55:25;24.20;49.40
26479;DHT22;14163;-26.142;27.992;2022-07-12T09:57:57;24.40;49.40
26479;DHT22;14163;-26.142;27.992;2022-07-12T10:00:27;24.90;48.90
26479;DHT22;14163;-26.142;27.992;2022-07-12T10:03:00;25.30;48.50
26479;DHT22;14163;-26.142;27.992;2022-07-12T10:05:30;25.60;48.40
26479;DHT22;14163;-26.142;27.992;2022-07-12T10:08:00;26.00;48.10
26479;DHT22;14163;-26.142;27.992;2022-07-12T10:10:30;26.10;47.60
26479;DHT22;14163;-26.142;27.992;2022-07-12T10:13:00;26.20;47.10
26479;DHT22;14163;-26.142;27.992;2022-07-12T10:15:31;26.30;47.30
26479;DHT22;14163;-26.142;27.992;2022-07-12T10:18:06;26.10;47.30
26479;DHT22;14163;-26.142;27.992;2022-07-12T10:20:42;25.50;47.60
26479;DHT22;14163;-26.142;27.992;2022-07-12T10:23:30;25.30;47.90
26479;DHT22;14163;-26.142;27.992;2022-07-12T10:26:02;25.40;48.40
26479;DHT22;14163;-26.142;27.992;2022-07-12T10:29:02;25.50;48.00
26479;DHT22;14163;-26.142;27.992;2022-07-12T10:31:35;25.60;48.10
26479;DHT22;14163;-26.142;27.992;2022-07-12T10:34:14;26.10;48.50
26479;DHT22;14163;-26.142;27.992;2022-07-12T10:37:08;26.60;47.60
26479;DHT22;14163;-26.142;27.992;2022-07-12T10:39:37;26.90;47.60
26479;DHT22;14163;-26.142;27.992;2022-07-12T10:42:17;26.90;48.20
26479;DHT22;14163;-26.142;27.992;2022-07-12T10:44:47;27.10;47.00
26479;DHT22;14163;-26.142;27.992;2022-07-12T10:47:17;27.20;46.70
26479;DHT22;14163;-26.142;27.992;2022-07-12T10:49:51;26.80;46.90
26479;DHT22;14163;-26.142;27.992;2022-07-12T10:52:24;27.10;47.40
26479;DHT22;14163;-26.142;27.992;2022-07-12T10:55:18;27.20;47.00
26479;DHT22;14163;-26.142;27.992;2022-07-12T10:57:48;27.10;46.40
26479;DHT22;14163;-26.142;27.992;2022-07-12T11:00:19;27.20;46.90
26479;DHT22;14163;-26.142;27.992;2022-07-12T11:02:49;27.50;46.20
26479;DHT22;14163;-26.142;27.992;2022-07-12T11:05:26;27.40;46.10
26479;DHT22;14163;-26.142;27.992;2022-07-12T11:07:56;27.30;46.10
26479;DHT22;14163;-26.142;27.992;2022-07-12T11:10:25;27.50;46.30
26479;DHT22;14163;-26.142;27.992;2022-07-12T11:12:54;27.70;46.00
26479;DHT22;14163;-26.142;27.992;2022-07-12T11:15:24;27.90;45.70
26479;DHT22;14163;-26.142;27.992;2022-07-12T11:17:53;28.10;45.30
26479;DHT22;14163;-26.142;27.992;2022-07-12T11:20:30;28.10;45.00
26479;DHT22;14163;-26.142;27.992;2022-07-12T11:22:59;27.80;45.60
26479;DHT22;14163;-26.142;27.992;2022-07-12T11:25:29;26.40;45.90
26479;DHT22;14163;-26.142;27.992;2022-07-12T11:27:59;25.40;47.00
26479;DHT22;14163;-26.142;27.992;2022-07-12T11:30:28;25.20;47.20
26479;DHT22;14163;-26.142;27.992;2022-07-12T11:32:57;25.30;47.70
26479;DHT22;14163;-26.142;27.992;2022-07-12T11:35:27;25.10;47.30
26479;DHT22;14163;-26.142;27.992;2022-07-12T11:37:58;25.00;47.70
26479;DHT22;14163;-26.142;27.992;2022-07-12T11:40:28;24.60;48.00
26479;DHT22;14163;-26.142;27.992;2022-07-12T11:42:59;24.20;48.40
26479;DHT22;14163;-26.142;27.992;2022-07-12T11:45:29;24.00;48.60
26479;DHT22;14163;-26.142;27.992;2022-07-12T11:47:59;23.80;48.40
26479;DHT22;14163;-26.142;27.992;2022-07-12T11:50:29;23.80;48.80
26479;DHT22;14163;-26.142;27.992;2022-07-12T11:53:03;23.90;48.80
26479;DHT22;14163;-26.142;27.992;2022-07-12T11:55:32;24.00;48.90
26479;DHT22;14163;-26.142;27.992;2022-07-12T11:58:09;23.90;48.80
26479;DHT22;14163;-26.142;27.992;2022-07-12T12:00:39;23.80;48.80
26479;DHT22;14163;-26.142;27.992;2022-07-12T14:09:13;21.70;55.40
26479;DHT22;14163;-26.142;27.992;2022-07-12T14:11:43;19.90;54.60
26479;DHT22;14163;-26.142;27.992;2022-07-12T14:14:12;20.50;54.20
26479;DHT22;14163;-26.142;27.992;2022-07-12T14:16:41;21.20;53.20
26479;DHT22;14163;-26.142;27.992;2022-07-12T14:19:10;21.80;52.40
26479;DHT22;14163;-26.142;27.992;2022-07-12T14:21:39;22.40;52.10
26479;DHT22;14163;-26.142;27.992;2022-07-12T14:24:08;22.70;51.70
26479;DHT22;14163;-26.142;27.992;2022-07-12T14:26:39;22.80;52.00
26479;DHT22;14163;-26.142;27.992;2022-07-12T14:29:08;23.20;51.90
26479;DHT22;14163;-26.142;27.992;2022-07-12T14:31:38;23.30;51.10
26479;DHT22;14163;-26.142;27.992;2022-07-12T14:34:07;23.30;51.10
26479;DHT22;14163;-26.142;27.992;2022-07-12T14:36:36;23.10;51.50
26479;DHT22;14163;-26.142;27.992;2022-07-12T14:39:05;23.00;51.40
26479;DHT22;14163;-26.142;27.992;2022-07-12T14:41:34;23.10;51.70
26479;DHT22;14163;-26.142;27.992;2022-07-12T14:44:06;23.20;51.60
26479;DHT22;14163;-26.142;27.992;2022-07-12T14:46:35;23.10;51.80
26479;DHT22;14163;-26.142;27.992;2022-07-12T14:49:04;23.20;51.60
26479;DHT22;14163;-26.142;27.992;2022-07-12T14:51:34;23.20;51.70
26479;DHT22;14163;-26.142;27.992;2022-07-12T14:54:03;23.30;52.00
26479;DHT22;14163;-26.142;27.992;2022-07-12T14:56:32;23.20;51.10
26479;DHT22;14163;-26.142;27.992;2022-07-12T14:59:02;23.00;51.60
26479;DHT22;14163;-26.142;27.992;2022-07-12T15:01:33;22.80;51.60
26479;DHT22;14163;-26.142;27.992;2022-07-12T15:04:02;22.80;51.80
26479;DHT22;14163;-26.142;27.992;2022-07-12T15:06:32;22.80;51.80
26479;DHT22;14163;-26.142;27.992;2022-07-12T15:09:02;22.70;51.90
26479;DHT22;14163;-26.142;27.992;2022-07-12T15:11:31;22.70;52.10
26479;DHT22;14163;-26.142;27.992;2022-07-12T15:14:00;22.90;52.50
26479;DHT22;14163;-26.142;27.992;2022-07-12T15:16:32;23.00;52.20
26479;DHT22;14163;-26.142;27.992;2022-07-12T15:19:01;23.10;52.20
26479;DHT22;14163;-26.142;27.992;2022-07-12T15:21:30;23.00;52.60
26479;DHT22;14163;-26.142;27.992;2022-07-12T15:24:00;23.10;52.40
26479;DHT22;14163;-26.142;27.992;2022-07-12T15:26:29;23.10;52.80
26479;DHT22;14163;-26.142;27.992;2022-07-12T15:28:59;23.00;52.80
26479;DHT22;14163;-26.142;27.992;2022-07-12T15:31:31;23.00;53.20
26479;DHT22;14163;-26.142;27.992;2022-07-12T15:34:01;22.90;53.20
26479;DHT22;14163;-26.142;27.992;2022-07-12T15:36:30;22.90;53.00
26479;DHT22;14163;-26.142;27.992;2022-07-12T15:38:59;22.90;53.40
26479;DHT22;14163;-26.142;27.992;2022-07-12T15:41:29;22.80;53.60
26479;DHT22;14163;-26.142;27.992;2022-07-12T15:43:58;22.80;53.70
26479;DHT22;14163;-26.142;27.992;2022-07-12T15:46:32;22.80;54.90
26479;DHT22;14163;-26.142;27.992;2022-07-12T15:49:01;22.80;54.70
26479;DHT22;14163;-26.142;27.992;2022-07-12T15:51:30;22.70;55.40
26479;DHT22;14163;-26.142;27.992;2022-07-12T15:54:16;22.70;55.80
26479;DHT22;14163;-26.142;27.992;2022-07-12T15:56:45;22.70;56.40
26479;DHT22;14163;-26.142;27.992;2022-07-12T15:59:14;22.60;56.40
26479;DHT22;14163;-26.142;27.992;2022-07-12T16:01:45;22.50;56.40
26479;DHT22;14163;-26.142;27.992;2022-07-12T16:04:15;22.50;56.80
26479;DHT22;14163;-26.142;27.992;2022-07-12T16:06:44;22.40;57.20
26479;DHT22;14163;-26.142;27.992;2022-07-12T16:09:14;22.30;57.30
26479;DHT22;14163;-26.142;27.992;2022-07-12T16:11:43;22.20;57.40
26479;DHT22;14163;-26.142;27.992;2022-07-12T16:14:12;22.10;57.80
26479;DHT22;14163;-26.142;27.992;2022-07-12T16:16:41;22.00;58.00
26479;DHT22;14163;-26.142;27.992;2022-07-12T16:19:16;22.00;58.30
26479;DHT22;14163;-26.142;27.992;2022-07-12T16:21:48;21.90;58.20
26479;DHT22;14163;-26.142;27.992;2022-07-12T16:24:17;21.80;58.40
26479;DHT22;14163;-26.142;27.992;2022-07-12T16:26:46;21.70;58.60
26479;DHT22;14163;-26.142;27.992;2022-07-12T16:29:15;21.60;58.90
26479;DHT22;14163;-26.142;27.992;2022-07-12T16:31:45;21.60;58.40
26479;DHT22;14163;-26.142;27.992;2022-07-12T16:34:15;21.50;58.70
26479;DHT22;14163;-26.142;27.992;2022-07-12T16:36:48;21.40;58.60
26479;DHT22;14163;-26.142;27.992;2022-07-12T16:39:17;21.40;58.90
26479;DHT22;14163;-26.142;27.992;2022-07-12T16:41:46;21.30;58.90
26479;DHT22;14163;-26.142;27.992;2022-07-12T16:44:15;21.20;59.40
26479;DHT22;14163;-26.142;27.992;2022-07-12T16:46:45;21.20;59.60
26479;DHT22;14163;-26.142;27.992;2022-07-12T16:49:19;21.10;57.90
26479;DHT22;14163;-26.142;27.992;2022-07-12T16:51:55;21.10;58.20
26479;DHT22;14163;-26.142;27.992;2022-07-12T16:54:35;21.10;57.80
26479;DHT22;14163;-26.142;27.992;2022-07-12T16:57:12;21.10;57.60
26479;DHT22;14163;-26.142;27.992;2022-07-12T16:59:47;21.20;57.80
26479;DHT22;14163;-26.142;27.992;2022-07-12T17:02:20;21.10;59.00
26479;DHT22;14163;-26.142;27.992;2022-07-12T17:04:51;21.10;58.90
26479;DHT22;14163;-26.142;27.992;2022-07-12T17:07:22;21.10;59.30
26479;DHT22;14163;-26.142;27.992;2022-07-12T17:09:51;21.00;57.90
26479;DHT22;14163;-26.142;27.992;2022-07-12T17:12:21;21.00;58.70
26479;DHT22;14163;-26.142;27.992;2022-07-12T17:14:51;20.90;58.70
26479;DHT22;14163;-26.142;27.992;2022-07-12T17:17:21;20.80;59.10
26479;DHT22;14163;-26.142;27.992;2022-07-12T17:19:53;20.80;59.70
26479;DHT22;14163;-26.142;27.992;2022-07-12T17:22:23;20.70;59.90
26479;DHT22;14163;-26.142;27.992;2022-07-12T17:24:52;20.60;60.20
26479;DHT22;14163;-26.142;27.992;2022-07-12T17:27:21;20.60;60.30
26479;DHT22;14163;-26.142;27.992;2022-07-12T17:29:50;20.50;60.40
26479;DHT22;14163;-26.142;27.992;2022-07-12T17:32:20;20.40;60.90
26479;DHT22;14163;-26.142;27.992;2022-07-12T17:34:49;20.40;61.40
26479;DHT22;14163;-26.142;27.992;2022-07-12T17:37:20;20.30;61.60
26479;DHT22;14163;-26.142;27.992;2022-07-12T17:39:49;20.20;62.00
26479;DHT22;14163;-26.142;27.992;2022-07-12T17:42:19;20.20;62.10
26479;DHT22;14163;-26.142;27.992;2022-07-12T17:44:48;20.10;62.30
26479;DHT22;14163;-26.142;27.992;2022-07-12T17:47:17;20.00;62.50
26479;DHT22;14163;-26.142;27.992;2022-07-12T17:49:46;20.00;62.90
26479;DHT22;14163;-26.142;27.992;2022-07-12T17:52:15;19.90;63.10
26479;DHT22;14163;-26.142;27.992;2022-07-12T17:54:46;19.80;63.20
26479;DHT22;14163;-26.142;27.992;2022-07-12T17:57:16;19.80;63.40
26479;DHT22;14163;-26.142;27.992;2022-07-12T17:59:45;19.80;63.50
26479;DHT22;14163;-26.142;27.992;2022-07-12T18:02:14;19.80;63.70
26479;DHT22;14163;-26.142;27.992;2022-07-12T18:04:43;19.70;63.80
26479;DHT22;14163;-26.142;27.992;2022-07-12T18:07:13;19.70;64.00
26479;DHT22;14163;-26.142;27.992;2022-07-12T18:09:42;19.60;64.00
26479;DHT22;14163;-26.142;27.992;2022-07-12T18:12:13;19.50;64.00
26479;DHT22;14163;-26.142;27.992;2022-07-12T18:14:59;19.50;63.60
26479;DHT22;14163;-26.142;27.992;2022-07-12T18:17:28;19.40;63.30
26479;DHT22;14163;-26.142;27.992;2022-07-12T18:20:14;19.40;63.80
26479;DHT22;14163;-26.142;27.992;2022-07-12T18:22:44;19.40;63.10
26479;DHT22;14163;-26.142;27.992;2022-07-12T18:25:13;19.40;63.50
26479;DHT22;14163;-26.142;27.992;2022-07-12T18:27:44;19.30;63.60
26479;DHT22;14163;-26.142;27.992;2022-07-12T18:30:13;19.30;64.00
26479;DHT22;14163;-26.142;27.992;2022-07-12T18:32:42;19.20;64.00
26479;DHT22;14163;-26.142;27.992;2022-07-12T18:35:11;19.20;64.20
26479;DHT22;14163;-26.142;27.992;2022-07-12T18:37:40;19.00;64.00
26479;DHT22;14163;-26.142;27.992;2022-07-12T18:40:10;19.00;64.10
26479;DHT22;14163;-26.142;27.992;2022-07-12T18:42:39;18.90;64.30
26479;DHT22;14163;-26.142;27.992;2022-07-12T18:45:11;18.90;64.40
26479;DHT22;14163;-26.142;27.992;2022-07-12T18:47:40;18.90;64.30
26479;DHT22;14163;-26.142;27.992;2022-07-12T18:50:10;18.90;64.40
26479;DHT22;14163;-26.142;27.992;2022-07-12T18:52:39;18.90;64.10
26479;DHT22;14163;-26.142;27.992;2022-07-12T18:55:09;18.90;64.40
26479;DHT22;14163;-26.142;27.992;2022-07-12T18:57:38;18.90;64.10
26479;DHT22;14163;-26.142;27.992;2022-07-12T19:00:10;18.90;64.00
26479;DHT22;14163;-26.142;27.992;2022-07-12T19:02:39;18.80;64.40
26479;DHT22;14163;-26.142;27.992;2022-07-12T19:05:09;18.80;64.50
26479;DHT22;14163;-26.142;27.992;2022-07-12T19:07:39;18.80;64.40
26479;DHT22;14163;-26.142;27.992;2022-07-12T19:10:08;18.80;65.10
26479;DHT22;14163;-26.142;27.992;2022-07-12T19:12:37;18.70;64.90
26479;DHT22;14163;-26.142;27.992;2022-07-12T19:15:08;18.70;65.00
26479;DHT22;14163;-26.142;27.992;2022-07-12T19:17:39;18.60;65.00
26479;DHT22;14163;-26.142;27.992;2022-07-12T19:20:09;18.60;65.30
26479;DHT22;14163;-26.142;27.992;2022-07-12T19:22:38;18.60;65.60
26479;DHT22;14163;-26.142;27.992;2022-07-12T19:25:10;18.50;65.80
26479;DHT22;14163;-26.142;27.992;2022-07-12T19:27:39;18.60;66.10
26479;DHT22;14163;-26.142;27.992;2022-07-12T19:30:09;18.60;66.30
26479;DHT22;14163;-26.142;27.992;2022-07-12T19:32:40;18.50;65.30
26479;DHT22;14163;-26.142;27.992;2022-07-12T19:35:10;18.40;64.30